Hawk Run, Pennsylvania
Current Conditions -  °F | °C
As of 3:54 AM on Friday 31 Oct 2014 (Local Time) from KFIG Reporting Station
Overcast Overcast  
Wind Chill: 40°   Ceiling: 4500
Heat Index: 40°   Visibility: 10mi
Dew Point: 36°   Wind: 3mph
Humidity: 86%   Direction: 40°NE
Pressure: 29.99"   Gusts: NA
Location:  40.94°N, 78.22°W
Report Text: KFIG 310754Z AUTO 04003KT 10SM OVC045 04/02 A2999 RMK AO2 SLP162 T00440022
Loading
Personal Weather Stations






























Interactive Weather Map
Tropical Storm Tracking
New forecast layout! Learn more

10-Day Weather Forecast

Advertisements
Track Severe Weather on mobile